sensor_id;sensor_type;location;lat;lon;timestamp;P1;durP1;ratioP1;P2;durP2;ratioP2
11685;SDS011;5899;51.282;6.094;2023-07-09T00:02:35;7.78;;;6.32;;
11685;SDS011;5899;51.282;6.094;2023-07-09T00:05:15;9.57;;;7.53;;
11685;SDS011;5899;51.282;6.094;2023-07-09T00:10:58;8.60;;;6.95;;
11685;SDS011;5899;51.282;6.094;2023-07-09T00:19:58;9.85;;;6.50;;
11685;SDS011;5899;51.282;6.094;2023-07-09T00:22:37;10.95;;;6.72;;
11685;SDS011;5899;51.282;6.094;2023-07-09T00:25:13;9.90;;;6.67;;
11685;SDS011;5899;51.282;6.094;2023-07-09T00:27:54;7.20;;;6.27;;
11685;SDS011;5899;51.282;6.094;2023-07-09T00:32:12;8.32;;;6.07;;
11685;SDS011;5899;51.282;6.094;2023-07-09T00:33:34;8.35;;;6.38;;
11685;SDS011;5899;51.282;6.094;2023-07-09T00:39:08;8.45;;;6.22;;
11685;SDS011;5899;51.282;6.094;2023-07-09T00:41:51;7.57;;;5.97;;
11685;SDS011;5899;51.282;6.094;2023-07-09T00:46:14;7.20;;;5.97;;
11685;SDS011;5899;51.282;6.094;2023-07-09T00:48:14;8.45;;;5.53;;
11685;SDS011;5899;51.282;6.094;2023-07-09T00:53:57;6.18;;;5.40;;
11685;SDS011;5899;51.282;6.094;2023-07-09T00:59:39;8.80;;;5.40;;
11685;SDS011;5899;51.282;6.094;2023-07-09T01:02:29;5.82;;;5.10;;
11685;SDS011;5899;51.282;6.094;2023-07-09T01:05:40;6.05;;;5.15;;
11685;SDS011;5899;51.282;6.094;2023-07-09T01:11:31;6.68;;;5.13;;
11685;SDS011;5899;51.282;6.094;2023-07-09T01:16:55;6.10;;;5.00;;
11685;SDS011;5899;51.282;6.094;2023-07-09T01:19:36;7.65;;;4.82;;
11685;SDS011;5899;51.282;6.094;2023-07-09T01:36:50;6.43;;;5.28;;
11685;SDS011;5899;51.282;6.094;2023-07-09T01:39:36;7.05;;;5.43;;
11685;SDS011;5899;51.282;6.094;2023-07-09T01:42:41;7.68;;;5.13;;
11685;SDS011;5899;51.282;6.094;2023-07-09T01:47:05;8.75;;;5.85;;
11685;SDS011;5899;51.282;6.094;2023-07-09T01:49:48;6.43;;;5.43;;
11685;SDS011;5899;51.282;6.094;2023-07-09T01:54:41;7.32;;;5.38;;
11685;SDS011;5899;51.282;6.094;2023-07-09T01:59:06;6.70;;;5.38;;
11685;SDS011;5899;51.282;6.094;2023-07-09T02:00:30;6.35;;;5.28;;
11685;SDS011;5899;51.282;6.094;2023-07-09T02:03:21;6.63;;;5.25;;
11685;SDS011;5899;51.282;6.094;2023-07-09T02:05:55;8.13;;;5.68;;
11685;SDS011;5899;51.282;6.094;2023-07-09T02:08:26;8.68;;;6.25;;
11685;SDS011;5899;51.282;6.094;2023-07-09T02:11:13;7.70;;;5.45;;
11685;SDS011;5899;51.282;6.094;2023-07-09T02:13:52;6.50;;;5.10;;
11685;SDS011;5899;51.282;6.094;2023-07-09T02:16:59;6.30;;;5.22;;
11685;SDS011;5899;51.282;6.094;2023-07-09T02:19:44;6.40;;;5.55;;
11685;SDS011;5899;51.282;6.094;2023-07-09T02:24:06;5.82;;;5.32;;
11685;SDS011;5899;51.282;6.094;2023-07-09T02:25:31;7.07;;;5.43;;
11685;SDS011;5899;51.282;6.094;2023-07-09T02:28:30;7.63;;;5.43;;
11685;SDS011;5899;51.282;6.094;2023-07-09T02:34:16;6.87;;;5.43;;
11685;SDS011;5899;51.282;6.094;2023-07-09T02:37:59;6.80;;;5.20;;
11685;SDS011;5899;51.282;6.094;2023-07-09T02:39:57;6.18;;;4.97;;
11685;SDS011;5899;51.282;6.094;2023-07-09T02:42:42;6.53;;;5.10;;
11685;SDS011;5899;51.282;6.094;2023-07-09T02:51:44;6.75;;;5.40;;
11685;SDS011;5899;51.282;6.094;2023-07-09T02:54:26;8.18;;;5.32;;
11685;SDS011;5899;51.282;6.094;2023-07-09T02:57:30;6.65;;;5.32;;
11685;SDS011;5899;51.282;6.094;2023-07-09T02:59:53;6.97;;;5.57;;
11685;SDS011;5899;51.282;6.094;2023-07-09T03:05:27;6.60;;;5.23;;
11685;SDS011;5899;51.282;6.094;2023-07-09T03:11:09;9.60;;;5.33;;
11685;SDS011;5899;51.282;6.094;2023-07-09T03:13:39;8.10;;;5.47;;
11685;SDS011;5899;51.282;6.094;2023-07-09T03:18:59;6.28;;;5.28;;
11685;SDS011;5899;51.282;6.094;2023-07-09T03:27:31;6.90;;;5.15;;
11685;SDS011;5899;51.282;6.094;2023-07-09T03:30:22;7.17;;;5.57;;
11685;SDS011;5899;51.282;6.094;2023-07-09T03:33:09;6.60;;;5.65;;
11685;SDS011;5899;51.282;6.094;2023-07-09T03:37:46;6.82;;;6.10;;
11685;SDS011;5899;51.282;6.094;2023-07-09T03:38:44;10.07;;;5.75;;
11685;SDS011;5899;51.282;6.094;2023-07-09T03:44:46;7.82;;;5.25;;
11685;SDS011;5899;51.282;6.094;2023-07-09T03:50:15;8.55;;;5.40;;
11685;SDS011;5899;51.282;6.094;2023-07-09T03:52:52;8.23;;;5.95;;
11685;SDS011;5899;51.282;6.094;2023-07-09T03:55:33;8.23;;;5.60;;
11685;SDS011;5899;51.282;6.094;2023-07-09T03:58:04;8.37;;;5.60;;
11685;SDS011;5899;51.282;6.094;2023-07-09T04:00:49;8.32;;;5.63;;
11685;SDS011;5899;51.282;6.094;2023-07-09T04:11:16;8.18;;;5.60;;
11685;SDS011;5899;51.282;6.094;2023-07-09T04:12:26;7.32;;;6.18;;
11685;SDS011;5899;51.282;6.094;2023-07-09T04:14:54;8.52;;;5.85;;
11685;SDS011;5899;51.282;6.094;2023-07-09T04:17:28;8.77;;;5.60;;
11685;SDS011;5899;51.282;6.094;2023-07-09T04:19:58;8.10;;;5.93;;
11685;SDS011;5899;51.282;6.094;2023-07-09T04:22:40;6.78;;;5.72;;
11685;SDS011;5899;51.282;6.094;2023-07-09T04:25:22;6.70;;;5.90;;
11685;SDS011;5899;51.282;6.094;2023-07-09T04:31:00;8.75;;;5.78;;
11685;SDS011;5899;51.282;6.094;2023-07-09T04:33:40;6.88;;;5.43;;
11685;SDS011;5899;51.282;6.094;2023-07-09T04:37:50;6.78;;;5.57;;
11685;SDS011;5899;51.282;6.094;2023-07-09T04:39:00;8.38;;;5.10;;
11685;SDS011;5899;51.282;6.094;2023-07-09T04:42:01;9.57;;;5.72;;
11685;SDS011;5899;51.282;6.094;2023-07-09T04:44:45;6.95;;;5.35;;
11685;SDS011;5899;51.282;6.094;2023-07-09T04:47:23;6.82;;;5.30;;
11685;SDS011;5899;51.282;6.094;2023-07-09T04:50:18;6.63;;;5.18;;
11685;SDS011;5899;51.282;6.094;2023-07-09T04:52:57;6.80;;;5.40;;
11685;SDS011;5899;51.282;6.094;2023-07-09T04:58:52;6.28;;;5.68;;
11685;SDS011;5899;51.282;6.094;2023-07-09T05:01:40;7.75;;;5.60;;
11685;SDS011;5899;51.282;6.094;2023-07-09T05:04:14;8.63;;;5.95;;
11685;SDS011;5899;51.282;6.094;2023-07-09T05:06:51;7.55;;;5.93;;
11685;SDS011;5899;51.282;6.094;2023-07-09T05:09:26;7.33;;;6.10;;
11685;SDS011;5899;51.282;6.094;2023-07-09T05:12:14;9.38;;;6.00;;
11685;SDS011;5899;51.282;6.094;2023-07-09T05:14:52;6.13;;;5.18;;
11685;SDS011;5899;51.282;6.094;2023-07-09T05:17:24;6.65;;;5.45;;
11685;SDS011;5899;51.282;6.094;2023-07-09T05:20:03;5.63;;;4.65;;
11685;SDS011;5899;51.282;6.094;2023-07-09T05:31:26;8.90;;;4.60;;
11685;SDS011;5899;51.282;6.094;2023-07-09T05:34:14;5.40;;;4.70;;
11685;SDS011;5899;51.282;6.094;2023-07-09T05:39:49;6.68;;;4.90;;
11685;SDS011;5899;51.282;6.094;2023-07-09T05:42:40;6.72;;;5.10;;
11685;SDS011;5899;51.282;6.094;2023-07-09T05:45:24;5.90;;;4.53;;
11685;SDS011;5899;51.282;6.094;2023-07-09T05:54:12;7.28;;;5.28;;
11685;SDS011;5899;51.282;6.094;2023-07-09T05:56:54;6.15;;;4.75;;
11685;SDS011;5899;51.282;6.094;2023-07-09T06:03:14;7.00;;;4.15;;
11685;SDS011;5899;51.282;6.094;2023-07-09T06:06:06;6.77;;;4.83;;
11685;SDS011;5899;51.282;6.094;2023-07-09T06:09:00;5.13;;;4.18;;
11685;SDS011;5899;51.282;6.094;2023-07-09T06:20:03;6.17;;;4.70;;
11685;SDS011;5899;51.282;6.094;2023-07-09T06:22:47;5.10;;;4.40;;
11685;SDS011;5899;51.282;6.094;2023-07-09T06:25:32;5.68;;;4.30;;
11685;SDS011;5899;51.282;6.094;2023-07-09T06:28:36;7.47;;;4.47;;
11685;SDS011;5899;51.282;6.094;2023-07-09T06:31:12;5.13;;;4.50;;
11685;SDS011;5899;51.282;6.094;2023-07-09T06:33:55;5.82;;;4.15;;
11685;SDS011;5899;51.282;6.094;2023-07-09T06:42:40;5.72;;;4.15;;
11685;SDS011;5899;51.282;6.094;2023-07-09T06:45:10;6.70;;;4.23;;
11685;SDS011;5899;51.282;6.094;2023-07-09T06:47:38;5.87;;;4.27;;
11685;SDS011;5899;51.282;6.094;2023-07-09T06:50:32;4.45;;;3.63;;
11685;SDS011;5899;51.282;6.094;2023-07-09T06:53:17;5.43;;;4.00;;
11685;SDS011;5899;51.282;6.094;2023-07-09T06:56:02;7.45;;;4.30;;
11685;SDS011;5899;51.282;6.094;2023-07-09T06:58:48;5.53;;;4.38;;
11685;SDS011;5899;51.282;6.094;2023-07-09T07:01:14;4.25;;;3.72;;
11685;SDS011;5899;51.282;6.094;2023-07-09T07:03:44;5.65;;;3.97;;
11685;SDS011;5899;51.282;6.094;2023-07-09T07:06:12;6.97;;;4.07;;
11685;SDS011;5899;51.282;6.094;2023-07-09T07:08:45;5.35;;;4.00;;
11685;SDS011;5899;51.282;6.094;2023-07-09T07:11:20;8.20;;;4.05;;
11685;SDS011;5899;51.282;6.094;2023-07-09T07:13:51;8.70;;;4.53;;
11685;SDS011;5899;51.282;6.094;2023-07-09T07:16:25;5.43;;;4.10;;
11685;SDS011;5899;51.282;6.094;2023-07-09T07:19:09;6.28;;;3.90;;
11685;SDS011;5899;51.282;6.094;2023-07-09T07:22:08;7.15;;;3.80;;
11685;SDS011;5899;51.282;6.094;2023-07-09T07:24:49;5.43;;;3.88;;
11685;SDS011;5899;51.282;6.094;2023-07-09T07:27:56;5.32;;;4.00;;
11685;SDS011;5899;51.282;6.094;2023-07-09T07:30:26;6.10;;;3.70;;
11685;SDS011;5899;51.282;6.094;2023-07-09T07:33:08;5.37;;;4.03;;
11685;SDS011;5899;51.282;6.094;2023-07-09T07:36:06;6.32;;;4.20;;
11685;SDS011;5899;51.282;6.094;2023-07-09T07:38:45;6.95;;;4.30;;
11685;SDS011;5899;51.282;6.094;2023-07-09T07:41:42;5.25;;;3.60;;
11685;SDS011;5899;51.282;6.094;2023-07-09T07:53:05;5.88;;;3.53;;
11685;SDS011;5899;51.282;6.094;2023-07-09T07:55:50;5.53;;;3.55;;
11685;SDS011;5899;51.282;6.094;2023-07-09T07:58:32;6.22;;;4.28;;
11685;SDS011;5899;51.282;6.094;2023-07-09T08:01:13;6.63;;;3.42;;
11685;SDS011;5899;51.282;6.094;2023-07-09T08:03:42;5.47;;;4.03;;
11685;SDS011;5899;51.282;6.094;2023-07-09T08:06:50;5.60;;;3.70;;
11685;SDS011;5899;51.282;6.094;2023-07-09T08:09:44;5.05;;;3.10;;
11685;SDS011;5899;51.282;6.094;2023-07-09T08:15:25;4.70;;;3.65;;
11685;SDS011;5899;51.282;6.094;2023-07-09T08:18:18;4.07;;;3.50;;
11685;SDS011;5899;51.282;6.094;2023-07-09T08:21:19;4.60;;;3.17;;
11685;SDS011;5899;51.282;6.094;2023-07-09T08:23:53;4.23;;;3.67;;
11685;SDS011;5899;51.282;6.094;2023-07-09T08:35:18;4.28;;;3.10;;
11685;SDS011;5899;51.282;6.094;2023-07-09T08:38:05;5.10;;;3.10;;
11685;SDS011;5899;51.282;6.094;2023-07-09T08:40:40;8.07;;;3.53;;
11685;SDS011;5899;51.282;6.094;2023-07-09T08:43:30;5.18;;;3.70;;
11685;SDS011;5899;51.282;6.094;2023-07-09T08:46:14;4.53;;;3.33;;
11685;SDS011;5899;51.282;6.094;2023-07-09T08:51:44;4.88;;;3.20;;
11685;SDS011;5899;51.282;6.094;2023-07-09T08:54:34;5.30;;;4.00;;
11685;SDS011;5899;51.282;6.094;2023-07-09T08:57:47;7.43;;;4.00;;
11685;SDS011;5899;51.282;6.094;2023-07-09T09:00:26;5.38;;;4.15;;
11685;SDS011;5899;51.282;6.094;2023-07-09T09:03:14;4.72;;;3.42;;
11685;SDS011;5899;51.282;6.094;2023-07-09T09:26:47;4.00;;;3.30;;
11685;SDS011;5899;51.282;6.094;2023-07-09T09:31:45;4.47;;;3.30;;
11685;SDS011;5899;51.282;6.094;2023-07-09T09:32:56;3.83;;;3.40;;
11685;SDS011;5899;51.282;6.094;2023-07-09T09:36:00;4.90;;;3.50;;
11685;SDS011;5899;51.282;6.094;2023-07-09T09:39:22;4.07;;;3.25;;
11685;SDS011;5899;51.282;6.094;2023-07-09T09:47:58;4.28;;;3.03;;
11685;SDS011;5899;51.282;6.094;2023-07-09T09:50:40;4.72;;;3.22;;
11685;SDS011;5899;51.282;6.094;2023-07-09T10:33:12;3.28;;;2.95;;
11685;SDS011;5899;51.282;6.094;2023-07-09T10:38:03;3.73;;;3.07;;
11685;SDS011;5899;51.282;6.094;2023-07-09T10:39:00;4.13;;;3.03;;
11685;SDS011;5899;51.282;6.094;2023-07-09T10:42:00;4.75;;;3.08;;
11685;SDS011;5899;51.282;6.094;2023-07-09T10:44:55;3.60;;;3.30;;
11685;SDS011;5899;51.282;6.094;2023-07-09T11:02:29;3.47;;;2.85;;
11685;SDS011;5899;51.282;6.094;2023-07-09T11:06:02;4.30;;;2.90;;
11685;SDS011;5899;51.282;6.094;2023-07-09T11:08:15;4.00;;;3.05;;
11685;SDS011;5899;51.282;6.094;2023-07-09T11:10:48;4.30;;;3.20;;
11685;SDS011;5899;51.282;6.094;2023-07-09T11:19:20;3.80;;;2.93;;
11685;SDS011;5899;51.282;6.094;2023-07-09T11:22:14;3.67;;;3.10;;
11685;SDS011;5899;51.282;6.094;2023-07-09T11:24:49;4.55;;;3.00;;
11685;SDS011;5899;51.282;6.094;2023-07-09T11:39:52;3.45;;;2.88;;
11685;SDS011;5899;51.282;6.094;2023-07-09T11:45:36;2.70;;;2.50;;
11685;SDS011;5899;51.282;6.094;2023-07-09T11:49:38;4.28;;;2.78;;
11685;SDS011;5899;51.282;6.094;2023-07-09T11:58:12;3.42;;;2.90;;
11685;SDS011;5899;51.282;6.094;2023-07-09T12:00:54;2.97;;;2.67;;
11685;SDS011;5899;51.282;6.094;2023-07-09T12:03:23;3.58;;;3.03;;
11685;SDS011;5899;51.282;6.094;2023-07-09T12:09:03;3.72;;;2.75;;
11685;SDS011;5899;51.282;6.094;2023-07-09T12:11:43;4.32;;;3.13;;
11685;SDS011;5899;51.282;6.094;2023-07-09T12:14:20;3.30;;;2.60;;
11685;SDS011;5899;51.282;6.094;2023-07-09T12:17:07;3.63;;;2.95;;
11685;SDS011;5899;51.282;6.094;2023-07-09T12:19:50;4.50;;;3.25;;
11685;SDS011;5899;51.282;6.094;2023-07-09T12:22:24;3.43;;;2.83;;
11685;SDS011;5899;51.282;6.094;2023-07-09T12:40:09;4.13;;;2.80;;
11685;SDS011;5899;51.282;6.094;2023-07-09T12:46:11;4.70;;;2.78;;
11685;SDS011;5899;51.282;6.094;2023-07-09T12:48:54;3.58;;;2.70;;
11685;SDS011;5899;51.282;6.094;2023-07-09T12:54:51;2.60;;;2.40;;
11685;SDS011;5899;51.282;6.094;2023-07-09T13:06:05;3.97;;;2.60;;
11685;SDS011;5899;51.282;6.094;2023-07-09T13:08:40;3.00;;;2.78;;
11685;SDS011;5899;51.282;6.094;2023-07-09T13:11:39;5.05;;;2.70;;
11685;SDS011;5899;51.282;6.094;2023-07-09T13:14:35;3.20;;;2.60;;
11685;SDS011;5899;51.282;6.094;2023-07-09T13:17:30;3.20;;;2.78;;
11685;SDS011;5899;51.282;6.094;2023-07-09T13:20:12;8.77;;;3.00;;
11685;SDS011;5899;51.282;6.094;2023-07-09T13:26:01;4.50;;;2.80;;
11685;SDS011;5899;51.282;6.094;2023-07-09T13:31:49;5.93;;;2.97;;
11685;SDS011;5899;51.282;6.094;2023-07-09T13:34:33;3.10;;;2.80;;
11685;SDS011;5899;51.282;6.094;2023-07-09T13:37:05;3.53;;;3.10;;
11685;SDS011;5899;51.282;6.094;2023-07-09T13:39:44;4.15;;;2.90;;
11685;SDS011;5899;51.282;6.094;2023-07-09T13:42:25;3.58;;;2.85;;
11685;SDS011;5899;51.282;6.094;2023-07-09T13:44:57;4.18;;;2.85;;
11685;SDS011;5899;51.282;6.094;2023-07-09T13:50:36;6.75;;;4.13;;
11685;SDS011;5899;51.282;6.094;2023-07-09T13:53:05;6.80;;;3.92;;
11685;SDS011;5899;51.282;6.094;2023-07-09T13:55:35;7.85;;;4.35;;
11685;SDS011;5899;51.282;6.094;2023-07-09T13:58:12;5.10;;;3.55;;
11685;SDS011;5899;51.282;6.094;2023-07-09T14:00:50;10.10;;;4.25;;
11685;SDS011;5899;51.282;6.094;2023-07-09T14:03:18;4.88;;;3.13;;
11685;SDS011;5899;51.282;6.094;2023-07-09T14:05:44;3.05;;;2.50;;
11685;SDS011;5899;51.282;6.094;2023-07-09T14:08:12;2.95;;;2.28;;
11685;SDS011;5899;51.282;6.094;2023-07-09T14:10:39;3.10;;;2.65;;
11685;SDS011;5899;51.282;6.094;2023-07-09T14:13:09;5.35;;;3.00;;
11685;SDS011;5899;51.282;6.094;2023-07-09T14:15:38;8.10;;;5.30;;
11685;SDS011;5899;51.282;6.094;2023-07-09T14:18:05;5.55;;;4.55;;
11685;SDS011;5899;51.282;6.094;2023-07-09T14:20:35;6.00;;;4.40;;
11685;SDS011;5899;51.282;6.094;2023-07-09T14:23:01;6.10;;;5.28;;
11685;SDS011;5899;51.282;6.094;2023-07-09T14:25:28;6.65;;;5.40;;
11685;SDS011;5899;51.282;6.094;2023-07-09T14:27:55;9.68;;;7.32;;
11685;SDS011;5899;51.282;6.094;2023-07-09T14:30:41;10.15;;;7.90;;
11685;SDS011;5899;51.282;6.094;2023-07-09T14:33:10;11.50;;;8.98;;
11685;SDS011;5899;51.282;6.094;2023-07-09T14:35:38;13.57;;;9.52;;
11685;SDS011;5899;51.282;6.094;2023-07-09T14:38:14;11.05;;;8.35;;
11685;SDS011;5899;51.282;6.094;2023-07-09T14:40:41;9.18;;;7.97;;
11685;SDS011;5899;51.282;6.094;2023-07-09T14:43:08;8.75;;;7.90;;
11685;SDS011;5899;51.282;6.094;2023-07-09T14:45:36;8.07;;;6.70;;
11685;SDS011;5899;51.282;6.094;2023-07-09T14:48:05;10.17;;;6.60;;
11685;SDS011;5899;51.282;6.094;2023-07-09T14:50:34;8.90;;;6.10;;
11685;SDS011;5899;51.282;6.094;2023-07-09T14:53:02;7.85;;;5.78;;
11685;SDS011;5899;51.282;6.094;2023-07-09T14:55:29;6.22;;;5.45;;
11685;SDS011;5899;51.282;6.094;2023-07-09T14:57:55;6.28;;;5.15;;
11685;SDS011;5899;51.282;6.094;2023-07-09T15:00:25;7.28;;;5.32;;
11685;SDS011;5899;51.282;6.094;2023-07-09T15:02:52;5.55;;;4.65;;
11685;SDS011;5899;51.282;6.094;2023-07-09T15:05:21;5.85;;;4.55;;
11685;SDS011;5899;51.282;6.094;2023-07-09T15:07:48;6.82;;;5.13;;
11685;SDS011;5899;51.282;6.094;2023-07-09T15:10:15;7.97;;;5.47;;
11685;SDS011;5899;51.282;6.094;2023-07-09T15:12:42;8.50;;;6.28;;
11685;SDS011;5899;51.282;6.094;2023-07-09T15:15:13;7.93;;;7.13;;
11685;SDS011;5899;51.282;6.094;2023-07-09T15:17:53;8.27;;;6.68;;
11685;SDS011;5899;51.282;6.094;2023-07-09T15:20:38;8.40;;;7.20;;
11685;SDS011;5899;51.282;6.094;2023-07-09T15:23:11;10.48;;;6.47;;
11685;SDS011;5899;51.282;6.094;2023-07-09T15:25:38;11.48;;;6.63;;
11685;SDS011;5899;51.282;6.094;2023-07-09T15:28:12;6.97;;;6.13;;
11685;SDS011;5899;51.282;6.094;2023-07-09T15:30:48;7.25;;;6.22;;
11685;SDS011;5899;51.282;6.094;2023-07-09T15:33:28;7.03;;;5.77;;
11685;SDS011;5899;51.282;6.094;2023-07-09T15:39:30;9.15;;;6.70;;
11685;SDS011;5899;51.282;6.094;2023-07-09T15:42:08;7.18;;;6.30;;
11685;SDS011;5899;51.282;6.094;2023-07-09T15:48:06;7.70;;;6.70;;
11685;SDS011;5899;51.282;6.094;2023-07-09T15:50:55;7.97;;;6.43;;
11685;SDS011;5899;51.282;6.094;2023-07-09T15:53:26;11.98;;;6.88;;
11685;SDS011;5899;51.282;6.094;2023-07-09T15:56:18;8.98;;;6.43;;
11685;SDS011;5899;51.282;6.094;2023-07-09T15:59:08;9.27;;;7.35;;
11685;SDS011;5899;51.282;6.094;2023-07-09T16:01:40;7.85;;;6.93;;
11685;SDS011;5899;51.282;6.094;2023-07-09T16:04:17;7.85;;;6.88;;
11685;SDS011;5899;51.282;6.094;2023-07-09T16:13:14;11.63;;;6.63;;
11685;SDS011;5899;51.282;6.094;2023-07-09T16:19:03;8.75;;;6.80;;
11685;SDS011;5899;51.282;6.094;2023-07-09T16:29:45;8.05;;;6.35;;
11685;SDS011;5899;51.282;6.094;2023-07-09T16:36:41;9.80;;;8.10;;
11685;SDS011;5899;51.282;6.094;2023-07-09T16:42:30;11.35;;;8.90;;
11685;SDS011;5899;51.282;6.094;2023-07-09T16:48:09;10.95;;;9.32;;
11685;SDS011;5899;51.282;6.094;2023-07-09T16:50:48;9.88;;;8.52;;
11685;SDS011;5899;51.282;6.094;2023-07-09T16:56:28;9.63;;;7.78;;
11685;SDS011;5899;51.282;6.094;2023-07-09T17:06:54;11.55;;;8.55;;
11685;SDS011;5899;51.282;6.094;2023-07-09T17:08:15;10.23;;;8.77;;
11685;SDS011;5899;51.282;6.094;2023-07-09T17:10:43;10.77;;;9.10;;
11685;SDS011;5899;51.282;6.094;2023-07-09T17:13:21;11.27;;;8.77;;
11685;SDS011;5899;51.282;6.094;2023-07-09T17:15:54;8.57;;;7.65;;
11685;SDS011;5899;51.282;6.094;2023-07-09T17:18:22;11.38;;;9.27;;
11685;SDS011;5899;51.282;6.094;2023-07-09T17:20:54;9.30;;;8.30;;
11685;SDS011;5899;51.282;6.094;2023-07-09T17:23:31;11.43;;;9.27;;
11685;SDS011;5899;51.282;6.094;2023-07-09T17:25:58;9.85;;;8.85;;
11685;SDS011;5899;51.282;6.094;2023-07-09T17:28:27;10.90;;;8.67;;
11685;SDS011;5899;51.282;6.094;2023-07-09T17:31:04;11.55;;;9.65;;
11685;SDS011;5899;51.282;6.094;2023-07-09T17:33:32;12.07;;;9.65;;
11685;SDS011;5899;51.282;6.094;2023-07-09T17:35:59;10.45;;;8.93;;
11685;SDS011;5899;51.282;6.094;2023-07-09T17:38:30;10.02;;;8.90;;
11685;SDS011;5899;51.282;6.094;2023-07-09T17:41:01;10.75;;;8.55;;
11685;SDS011;5899;51.282;6.094;2023-07-09T17:43:40;11.27;;;8.73;;
11685;SDS011;5899;51.282;6.094;2023-07-09T17:46:11;10.38;;;8.65;;
11685;SDS011;5899;51.282;6.094;2023-07-09T17:49:03;10.27;;;9.15;;
11685;SDS011;5899;51.282;6.094;2023-07-09T17:51:41;10.85;;;8.75;;
11685;SDS011;5899;51.282;6.094;2023-07-09T17:57:24;12.52;;;9.38;;
11685;SDS011;5899;51.282;6.094;2023-07-09T17:59:58;9.57;;;7.87;;
11685;SDS011;5899;51.282;6.094;2023-07-09T18:02:27;10.55;;;8.23;;
11685;SDS011;5899;51.282;6.094;2023-07-09T18:04:54;10.35;;;8.60;;
11685;SDS011;5899;51.282;6.094;2023-07-09T18:07:22;10.50;;;8.73;;
11685;SDS011;5899;51.282;6.094;2023-07-09T18:09:51;11.07;;;8.10;;
11685;SDS011;5899;51.282;6.094;2023-07-09T18:12:27;11.05;;;8.65;;
11685;SDS011;5899;51.282;6.094;2023-07-09T18:14:57;11.07;;;8.23;;
11685;SDS011;5899;51.282;6.094;2023-07-09T18:18:02;9.85;;;8.27;;
11685;SDS011;5899;51.282;6.094;2023-07-09T18:20:36;10.15;;;9.07;;
11685;SDS011;5899;51.282;6.094;2023-07-09T18:23:05;11.87;;;8.87;;
11685;SDS011;5899;51.282;6.094;2023-07-09T18:25:49;9.10;;;8.17;;
11685;SDS011;5899;51.282;6.094;2023-07-09T18:28:19;10.57;;;8.88;;
11685;SDS011;5899;51.282;6.094;2023-07-09T18:30:54;9.65;;;7.55;;
11685;SDS011;5899;51.282;6.094;2023-07-09T18:33:28;9.70;;;8.50;;
11685;SDS011;5899;51.282;6.094;2023-07-09T18:36:03;8.83;;;7.90;;
11685;SDS011;5899;51.282;6.094;2023-07-09T18:38:30;8.57;;;7.72;;
11685;SDS011;5899;51.282;6.094;2023-07-09T18:41:04;9.23;;;7.55;;
11685;SDS011;5899;51.282;6.094;2023-07-09T18:43:34;9.60;;;8.48;;
11685;SDS011;5899;51.282;6.094;2023-07-09T18:46:07;9.73;;;8.65;;
11685;SDS011;5899;51.282;6.094;2023-07-09T18:48:35;10.30;;;8.73;;
11685;SDS011;5899;51.282;6.094;2023-07-09T18:51:01;10.07;;;9.07;;
11685;SDS011;5899;51.282;6.094;2023-07-09T18:53:32;8.68;;;7.82;;
11685;SDS011;5899;51.282;6.094;2023-07-09T18:56:00;9.05;;;8.02;;
11685;SDS011;5899;51.282;6.094;2023-07-09T18:58:27;10.60;;;8.60;;
11685;SDS011;5899;51.282;6.094;2023-07-09T19:00:58;11.18;;;8.63;;
11685;SDS011;5899;51.282;6.094;2023-07-09T19:03:35;14.50;;;9.90;;
11685;SDS011;5899;51.282;6.094;2023-07-09T19:06:03;10.52;;;9.40;;
11685;SDS011;5899;51.282;6.094;2023-07-09T19:08:44;8.55;;;7.68;;
11685;SDS011;5899;51.282;6.094;2023-07-09T19:11:13;7.97;;;7.18;;
11685;SDS011;5899;51.282;6.094;2023-07-09T19:13:42;8.25;;;6.35;;
11685;SDS011;5899;51.282;6.094;2023-07-09T19:16:19;6.78;;;5.75;;
11685;SDS011;5899;51.282;6.094;2023-07-09T19:18:53;7.63;;;6.50;;
11685;SDS011;5899;51.282;6.094;2023-07-09T19:21:19;8.68;;;5.82;;
11685;SDS011;5899;51.282;6.094;2023-07-09T19:23:46;6.75;;;5.80;;
11685;SDS011;5899;51.282;6.094;2023-07-09T19:26:15;7.35;;;6.05;;
11685;SDS011;5899;51.282;6.094;2023-07-09T19:28:42;6.53;;;5.78;;
11685;SDS011;5899;51.282;6.094;2023-07-09T19:31:12;7.25;;;6.10;;
11685;SDS011;5899;51.282;6.094;2023-07-09T19:33:41;8.37;;;6.50;;
11685;SDS011;5899;51.282;6.094;2023-07-09T19:36:14;6.50;;;5.90;;
11685;SDS011;5899;51.282;6.094;2023-07-09T19:38:45;6.80;;;6.20;;
11685;SDS011;5899;51.282;6.094;2023-07-09T19:41:11;7.70;;;6.18;;
11685;SDS011;5899;51.282;6.094;2023-07-09T19:43:41;7.43;;;6.60;;
11685;SDS011;5899;51.282;6.094;2023-07-09T19:46:07;10.00;;;6.40;;
11685;SDS011;5899;51.282;6.094;2023-07-09T19:48:41;6.73;;;6.03;;
11685;SDS011;5899;51.282;6.094;2023-07-09T19:51:07;6.78;;;5.88;;
11685;SDS011;5899;51.282;6.094;2023-07-09T19:53:36;7.07;;;6.38;;
11685;SDS011;5899;51.282;6.094;2023-07-09T19:56:02;6.88;;;6.18;;
11685;SDS011;5899;51.282;6.094;2023-07-09T19:58:29;8.18;;;6.80;;
11685;SDS011;5899;51.282;6.094;2023-07-09T20:00:57;9.05;;;6.47;;
11685;SDS011;5899;51.282;6.094;2023-07-09T20:03:26;7.10;;;6.37;;
11685;SDS011;5899;51.282;6.094;2023-07-09T20:05:53;7.15;;;5.93;;
11685;SDS011;5899;51.282;6.094;2023-07-09T20:08:22;8.25;;;6.55;;
11685;SDS011;5899;51.282;6.094;2023-07-09T20:11:03;8.68;;;7.18;;
11685;SDS011;5899;51.282;6.094;2023-07-09T20:13:47;6.72;;;6.13;;
11685;SDS011;5899;51.282;6.094;2023-07-09T20:16:27;7.65;;;6.57;;
11685;SDS011;5899;51.282;6.094;2023-07-09T20:19:19;7.40;;;6.70;;
11685;SDS011;5899;51.282;6.094;2023-07-09T20:21:48;7.57;;;6.78;;
11685;SDS011;5899;51.282;6.094;2023-07-09T20:24:25;7.70;;;6.88;;
11685;SDS011;5899;51.282;6.094;2023-07-09T20:27:06;7.40;;;6.70;;
11685;SDS011;5899;51.282;6.094;2023-07-09T20:29:38;10.13;;;7.10;;
11685;SDS011;5899;51.282;6.094;2023-07-09T20:32:30;9.25;;;7.35;;
11685;SDS011;5899;51.282;6.094;2023-07-09T20:35:20;7.40;;;6.63;;
11685;SDS011;5899;51.282;6.094;2023-07-09T20:37:57;8.03;;;6.53;;
11685;SDS011;5899;51.282;6.094;2023-07-09T20:40:57;7.90;;;7.07;;
11685;SDS011;5899;51.282;6.094;2023-07-09T20:43:29;8.43;;;6.82;;
11685;SDS011;5899;51.282;6.094;2023-07-09T20:46:12;7.70;;;6.93;;
11685;SDS011;5899;51.282;6.094;2023-07-09T20:48:46;8.35;;;6.75;;
11685;SDS011;5899;51.282;6.094;2023-07-09T20:51:16;7.20;;;6.50;;
11685;SDS011;5899;51.282;6.094;2023-07-09T20:53:43;7.70;;;6.68;;
11685;SDS011;5899;51.282;6.094;2023-07-09T20:56:18;10.73;;;7.03;;
11685;SDS011;5899;51.282;6.094;2023-07-09T21:02:17;9.20;;;7.75;;
11685;SDS011;5899;51.282;6.094;2023-07-09T21:04:43;8.88;;;7.38;;
11685;SDS011;5899;51.282;6.094;2023-07-09T21:07:24;8.75;;;7.65;;
11685;SDS011;5899;51.282;6.094;2023-07-09T21:10:14;7.63;;;6.73;;
11685;SDS011;5899;51.282;6.094;2023-07-09T21:12:46;8.43;;;6.28;;
11685;SDS011;5899;51.282;6.094;2023-07-09T21:15:57;7.93;;;6.57;;
11685;SDS011;5899;51.282;6.094;2023-07-09T21:18:19;10.33;;;6.40;;
11685;SDS011;5899;51.282;6.094;2023-07-09T21:20:56;7.40;;;6.18;;
11685;SDS011;5899;51.282;6.094;2023-07-09T21:23:23;6.87;;;6.17;;
11685;SDS011;5899;51.282;6.094;2023-07-09T21:25:52;9.02;;;6.63;;
11685;SDS011;5899;51.282;6.094;2023-07-09T21:28:23;6.55;;;5.93;;
11685;SDS011;5899;51.282;6.094;2023-07-09T21:30:52;10.02;;;6.38;;
11685;SDS011;5899;51.282;6.094;2023-07-09T21:33:23;7.13;;;6.43;;
11685;SDS011;5899;51.282;6.094;2023-07-09T21:36:06;9.77;;;6.22;;
11685;SDS011;5899;51.282;6.094;2023-07-09T21:38:39;7.28;;;6.20;;
11685;SDS011;5899;51.282;6.094;2023-07-09T21:41:06;6.73;;;6.10;;
11685;SDS011;5899;51.282;6.094;2023-07-09T21:43:36;7.82;;;6.53;;
11685;SDS011;5899;51.282;6.094;2023-07-09T21:46:14;7.15;;;6.45;;
11685;SDS011;5899;51.282;6.094;2023-07-09T21:48:46;7.70;;;6.63;;
11685;SDS011;5899;51.282;6.094;2023-07-09T21:51:14;7.82;;;6.03;;
11685;SDS011;5899;51.282;6.094;2023-07-09T21:53:42;8.10;;;6.93;;
11685;SDS011;5899;51.282;6.094;2023-07-09T21:56:09;7.03;;;6.32;;
11685;SDS011;5899;51.282;6.094;2023-07-09T21:58:37;8.10;;;6.72;;
11685;SDS011;5899;51.282;6.094;2023-07-09T22:01:08;8.88;;;6.70;;